Latest Weather Observations for Minlaton Airport

IDS60801

Issued at 7:31 am CDT Wednesday 24 October 2018 (issued every 10 minutes, with the page automatically refreshed every 10 minutes)

About weather observations | Map of weather stations | Latest weather observations for SA | Other Formats
Station Details ID: 022031 Name: MINLATON AERO Lat: -34.75 Lon: 137.53 Height: 32.0 m
Data from the previous 72 hours. | See also: Recent months at Minlaton Airport
Date/Time
CDT
Temp
°C
App
Temp
°C
Dew
Point
°C
Rel
Hum
%
Delta-T
°C
Wind Press
QNH
hPa
Press
MSL
hPa
Rain since
9am
mm
Dir  Spd
km/h
Gust
km/h
Spd
kts
Gust
kts
24/07:30am 7.9 4.3 4.8 81 1.4 E 13 15 7 8 1023.0 1023.0 0.0
24/07:00am 5.8 0.8 3.8 87 0.8 ESE 19 20 10 11 1022.8 1022.8 0.0
24/06:30am 4.3 -0.5 2.7 89 0.6 ESE 17 19 9 10 1022.7 1022.7 0.0
24/06:00am 4.1 -0.8 2.3 88 0.7 ESE 17 19 9 10 1022.5 1022.5 0.0
24/05:30am 3.7 -0.8 2.2 90 0.6 E 15 17 8 9 1022.2 1022.2 0.0
24/05:00am 3.7 -1.2 2.1 89 0.6 E 17 17 9 9 1022.0 1022.0 0.0
24/04:30am 4.1 -0.4 2.3 88 0.7 E 15 17 8 9 1021.8 1021.8 0.0
24/04:00am 4.3 -0.5 2.5 88 0.7 E 17 19 9 10 1021.8 1021.8 0.0
24/03:30am 4.9 0.1 2.6 85 0.9 ESE 17 17 9 9 1021.9 1021.9 0.0
24/03:00am 5.1 0.2 1.9 80 1.3 SE 17 19 9 10 1022.0 1022.0 0.0
24/02:30am 7.6 2.5 3.3 74 1.8 SE 19 22 10 12 1022.0 1022.0 0.0
24/02:00am 8.0 2.8 3.3 72 2.0 SE 20 24 11 13 1022.0 1022.0 0.0
24/01:30am 8.3 3.1 3.4 71 2.1 SE 20 24 11 13 1022.3 1022.3 0.0
24/01:00am 8.1 2.9 3.8 74 1.9 SE 20 22 11 12 1022.8 1022.8 0.0
24/12:30am 7.9 3.0 3.9 76 1.7 SE 19 20 10 11 1023.0 1023.0 0.0
24/12:00am 6.3 1.6 3.3 81 1.3 SE 17 19 9 10 1023.0 1023.0 0.0
 
Date/Time
CDT
Temp
°C
App
Temp
°C
Dew
Point
°C
Rel
Hum
%
Delta-T
°C
Wind Press
QNH
hPa
Press
MSL
hPa
Rain since
9am
mm
Dir  Spd
km/h
Gust
km/h
Spd
kts
Gust
kts
23/11:30pm 7.2 2.5 3.4 77 1.6 SE 17 20 9 11 1023.0 1023.0 0.0
23/11:00pm 8.6 4.1 4.0 73 2.0 SE 17 20 9 11 1023.1 1023.1 0.0
23/10:30pm 8.0 3.8 3.7 74 1.8 SE 15 17 8 9 1023.1 1023.1 0.0
23/10:00pm 9.7 5.3 4.5 70 2.3 SE 17 20 9 11 1022.8 1022.8 0.0
23/09:30pm 11.5 6.8 5.2 65 2.9 SE 19 26 10 14 1022.5 1022.5 0.0
23/09:00pm 12.0 8.2 5.6 65 3.0 SE 15 20 8 11 1022.3 1022.3 0.0
23/08:30pm 10.1 5.7 4.5 68 2.5 SSE 17 20 9 11 1022.0 1022.0 0.0
23/08:00pm 11.5 7.3 3.8 59 3.4 S 15 17 8 9 1021.7 1021.7 0.0
23/07:30pm 13.6 8.4 3.7 51 4.5 S 20 26 11 14 1021.4 1021.4 0.0
23/07:00pm 15.2 9.3 4.0 47 5.2 S 24 32 13 17 1020.9 1020.9 0.0
23/06:30pm 16.4 10.4 3.5 42 5.9 S 24 33 13 18 1020.4 1020.4 0.0
23/06:00pm 17.5 12.0 1.9 35 7.0 SSW 20 30 11 16 1020.2 1020.2 0.0
23/05:30pm 16.9 9.8 5.5 47 5.5 W 32 43 17 23 1019.8 1019.8 0.0
23/05:00pm 17.3 9.6 3.6 40 6.4 W 33 43 18 23 1019.6 1019.6 0.0
23/04:30pm 17.9 9.9 3.8 39 6.6 W 35 41 19 22 1019.5 1019.5 0.0
23/04:00pm 17.6 9.4 2.8 37 6.8 W 35 43 19 23 1019.4 1019.4 0.0
23/03:30pm 17.7 9.8 4.6 42 6.2 W 35 43 19 23 1019.2 1019.2 0.0
23/03:00pm 18.2 10.7 4.7 41 6.4 W 33 46 18 25 1019.2 1019.2 0.0
23/02:30pm 18.5 10.7 1.5 32 7.6 W 32 43 17 23 1019.4 1019.4 0.0
23/02:00pm 18.4 10.9 3.5 37 7.0 W 32 41 17 22 1019.4 1019.4 0.0
23/01:30pm 19.0 11.4 2.8 34 7.5 WSW 32 43 17 23 1019.3 1019.3 0.0
23/01:00pm 19.3 12.0 5.4 40 6.8 W 33 43 18 23 1019.2 1019.2 0.0
23/12:30pm 18.0 10.6 4.2 40 6.5 W 32 41 17 22 1019.3 1019.3 0.0
23/12:00pm 18.7 13.3 6.2 44 6.2 W 24 33 13 18 1019.2 1019.2 0.0
23/11:30am 17.0 11.4 5.6 47 5.5 WSW 24 35 13 19 1019.3 1019.3 0.0
23/11:00am 17.4 11.9 5.7 46 5.7 SW 24 32 13 17 1019.1 1019.1 0.0
23/10:30am 16.9 11.6 6.7 51 5.0 SW 24 32 13 17 1019.0 1019.0 0.0
23/10:00am 17.1 12.4 7.7 54 4.7 SW 22 30 12 16 1018.9 1018.9 0.0
23/09:30am 16.7 12.5 8.1 57 4.4 SW 20 28 11 15 1018.8 1018.8 0.0
23/09:00am 14.8 12.3 8.3 65 3.3 SSW 11 17 6 9 1018.7 1018.7 0.0
23/08:30am 14.3 10.6 7.8 65 3.2 WSW 17 26 9 14 1018.6 1018.6 0.0
23/08:00am 13.2 8.3 8.3 72 2.4 WSW 24 33 13 18 1018.2 1018.2 0.0
23/07:30am 11.7 10.2 9.3 85 1.2 SSE 7 7 4 4 1017.7 1017.7 0.0
23/07:00am 8.2 6.2 7.0 92 0.6 S 7 9 4 5 1017.2 1017.2 0.0
23/06:30am 5.2 2.5 3.5 89 0.7 SSE 7 9 4 5 1016.5 1016.5 0.0
23/06:00am 7.6 4.9 5.7 88 0.9 S 9 11 5 6 1016.1 1016.1 0.0
23/05:30am 8.4 5.1 6.4 87 0.9 S 13 15 7 8 1016.0 1016.0 0.0
23/05:00am 8.1 5.3 6.9 92 0.6 S 11 15 6 8 1015.8 1015.8 0.0
23/04:30am 6.0 3.2 3.3 83 1.1 SSW 7 9 4 5 1015.5 1015.5 0.0
23/04:00am 9.5 7.3 7.8 89 0.8 SSW 9 11 5 6 1015.4 1015.4 0.0
23/03:30am 6.9 4.0 4.6 85 1.0 SSW 9 11 5 6 1015.5 1015.5 0.0
23/03:00am 8.7 5.2 5.6 81 1.4 SSW 13 17 7 9 1015.4 1015.4 0.0
23/02:30am 9.5 6.2 6.4 81 1.4 SSW 13 15 7 8 1015.5 1015.5 0.0
23/02:00am 10.1 6.8 6.6 79 1.6 SSW 13 15 7 8 1015.5 1015.5 0.0
23/01:30am 11.0 8.4 7.7 80 1.6 SW 11 13 6 7 1015.4 1015.4 0.0
23/01:00am 11.5 9.5 8.7 83 1.4 WSW 9 13 5 7 1015.5 1015.5 0.0
23/12:30am 12.2 10.4 9.4 83 1.4 W 9 9 5 5 1015.6 1015.6 0.0
23/12:00am 12.7 11.1 10.1 84 1.3 SW 9 11 5 6 1015.3 1015.3 0.0
 
Date/Time
CDT
Temp
°C
App
Temp
°C
Dew
Point
°C
Rel
Hum
%
Delta-T
°C
Wind Press
QNH
hPa
Press
MSL
hPa
Rain since
9am
mm
Dir  Spd
km/h
Gust
km/h
Spd
kts
Gust
kts
22/11:30pm 13.2 9.7 10.2 82 1.6 SW 19 20 10 11 1014.9 1014.9 0.0
22/11:00pm 13.2 10.1 10.2 82 1.6 SW 17 24 9 13 1014.7 1014.7 0.0
22/10:30pm 13.3 10.3 10.5 83 1.5 SW 17 20 9 11 1014.4 1014.4 0.0
22/10:00pm 13.8 10.1 10.2 79 1.9 SSW 20 28 11 15 1014.2 1014.2 0.0
22/09:30pm 14.2 9.7 10.2 77 2.1 SW 24 32 13 17 1013.9 1013.9 0.0
22/09:00pm 14.7 10.2 9.9 73 2.5 SSW 24 37 13 20 1013.6 1013.6 0.0
22/08:30pm 15.3 10.1 10.3 72 2.6 SSW 28 35 15 19 1012.8 1012.8 0.0
22/08:00pm 16.2 12.2 10.3 68 3.1 SSW 22 30 12 16 1012.1 1012.1 0.0
22/07:30pm 17.9 12.8 10.5 62 4.0 SSW 28 35 15 19 1011.5 1011.5 0.0
22/07:00pm 18.5 13.0 9.0 54 5.0 SSW 28 33 15 18 1011.1 1011.1 0.0
22/06:30pm 19.9 14.2 8.3 47 6.0 SSW 28 39 15 21 1010.6 1010.6 0.0
22/06:00pm 21.4 15.3 4.9 34 8.1 SSW 26 35 14 19 1010.2 1010.2 0.0
22/05:30pm 21.8 15.4 5.3 34 8.2 SSW 28 39 15 21 1010.0 1010.0 0.0
22/05:00pm 22.8 15.4 4.8 31 8.9 SSW 33 43 18 23 1009.7 1009.7 0.0
22/04:48pm 23.2 15.5 3.2 27 9.7 SW 33 43 18 23 1009.5 1009.5 0.0
22/04:30pm 22.7 19.3 11.4 49 6.3 WSW 20 24 11 13 1009.4 1009.4 0.0
22/04:00pm 22.4 18.2 11.2 49 6.2 W 24 30 13 16 1009.5 1009.5 0.0
22/03:30pm 23.0 17.1 9.0 41 7.5 SW 30 37 16 20 1009.2 1009.1 0.0
22/03:00pm 22.3 16.3 8.8 42 7.2 WSW 30 35 16 19 1009.9 1009.9 0.0
22/02:30pm 22.1 16.3 9.6 45 6.8 WSW 30 35 16 19 1010.4 1010.4 0.0
22/02:00pm 24.0 19.5 8.4 37 8.3 W 22 26 12 14 1010.7 1010.7 0.0
22/01:30pm 25.5 20.6 4.0 25 10.7 W 19 24 10 13 1010.7 1010.7 0.0
22/01:00pm 25.2 20.3 4.3 26 10.4 WNW 19 26 10 14 1010.8 1010.8 0.0
22/12:30pm 26.6 21.9 3.2 22 11.6 NW 17 26 9 14 1010.8 1010.8 0.0
22/12:00pm 26.4 22.2 1.7 20 11.9 NW 13 20 7 11 1010.8 1010.8 0.0
22/11:30am 25.1 21.3 1.9 22 11.1 NW 11 20 6 11 1011.1 1011.1 0.0
22/11:00am 25.1 21.1 3.1 24 10.7 NW 13 20 7 11 1011.5 1011.5 0.0
22/10:30am 23.9 20.1 3.8 27 9.9 W 13 19 7 10 1011.8 1011.8 0.0
22/10:00am 21.8 19.4 6.9 38 7.6 WNW 9 15 5 8 1012.0 1012.0 0.0
22/09:30am 19.4 16.6 8.7 50 5.6 NW 13 17 7 9 1012.2 1012.2 0.0
22/09:00am 19.4 14.8 9.6 53 5.2 NW 24 32 13 17 1012.2 1012.2 0.0
22/08:30am 20.2 13.5 5.8 39 7.2 NW 30 39 16 21 1012.0 1012.0 0.0
22/08:00am 19.6 13.1 2.5 32 7.9 N 26 32 14 17 1010.3 1010.3 0.0
22/07:30am 16.8 10.6 2.4 38 6.5 N 24 28 13 15 1009.9 1009.9 0.0
22/07:00am 15.8 9.5 1.5 38 6.3 N 24 30 13 16 1009.6 1009.6 0.0
22/06:30am 15.2 8.5 1.4 39 6.0 NNE 26 30 14 16 1009.3 1009.3 0.0
22/06:00am 13.9 8.1 2.2 45 5.1 NNE 22 26 12 14 1009.2 1009.1 0.0
22/05:30am 13.2 7.8 2.4 48 4.7 NNE 20 22 11 12 1009.1 1009.0 0.0
22/05:00am 12.9 7.5 2.5 49 4.6 NNE 20 22 11 12 1009.1 1009.0 0.0
22/04:30am 13.9 8.5 2.2 45 5.1 NNE 20 24 11 13 1009.3 1009.3 0.0
22/04:00am 14.6 9.2 2.5 44 5.4 NNE 20 24 11 13 1009.4 1009.4 0.0
22/03:30am 16.3 10.1 2.3 39 6.3 N 24 30 13 16 1009.5 1009.5 0.0
22/03:00am 15.6 9.6 3.4 44 5.6 NNE 24 28 13 15 1009.7 1009.7 0.0
22/02:30am 15.6 10.1 4.0 46 5.4 NE 22 26 12 14 1009.9 1009.9 0.0
22/02:00am 15.1 10.0 5.9 54 4.4 NE 22 28 12 15 1010.3 1010.3 0.0
22/01:30am 15.3 9.6 6.8 57 4.2 NE 26 30 14 16 1010.8 1010.8 0.0
22/01:00am 13.6 8.7 6.7 63 3.3 ENE 22 24 12 13 1011.3 1011.3 0.0
22/12:30am 14.7 9.4 6.8 59 3.9 ENE 24 28 13 15 1011.9 1011.9 0.0
22/12:00am 12.9 9.8 7.1 68 2.8 NE 13 17 7 9 1012.4 1012.4 0.0
 
Date/Time
CDT
Temp
°C
App
Temp
°C
Dew
Point
°C
Rel
Hum
%
Delta-T
°C
Wind Press
QNH
hPa
Press
MSL
hPa
Rain since
9am
mm
Dir  Spd
km/h
Gust
km/h
Spd
kts
Gust
kts
21/11:30pm 12.6 9.7 8.1 74 2.2 E 13 17 7 9 1012.9 1012.9 0.0
21/11:00pm 13.2 9.0 8.1 71 2.5 E 20 26 11 14 1013.0 1013.0 0.0
21/10:30pm 14.2 8.9 8.4 68 2.9 E 26 30 14 16 1013.0 1013.0 0.0
21/10:00pm 13.1 8.7 7.5 69 2.7 E 20 22 11 12 1013.3 1013.3 0.0
21/09:30pm 13.4 8.2 7.4 67 2.9 E 24 26 13 14 1013.2 1013.2 0.0
21/09:00pm 13.8 9.1 7.6 66 3.1 E 22 26 12 14 1013.2 1013.2 0.0
21/08:30pm 14.7 10.2 6.8 59 3.9 E 20 26 11 14 1013.3 1013.3 0.0
21/08:00pm 15.9 11.1 7.4 57 4.2 E 22 26 12 14 1013.3 1013.3 0.0
21/07:30pm 18.2 13.2 6.4 46 5.8 E 22 28 12 15 1013.4 1013.4 0.0
21/07:00pm 21.6 18.1 3.3 30 8.7 E 11 20 6 11 1013.5 1013.5 0.0
21/06:30pm 23.0 20.1 -1.1 20 10.7 ESE 4 11 2 6 1013.5 1013.5 0.0
21/06:00pm 23.4 20.4 -2.2 18 11.2 SE 4 9 2 5 1013.7 1013.7 0.0
21/05:30pm 23.8 20.3 -1.2 19 11.1 SW 7 9 4 5 1013.9 1013.9 0.0
21/05:00pm 23.5 19.5 -2.2 18 11.2 WSW 9 13 5 7 1014.1 1014.1 0.0
21/04:30pm 23.2 19.1 -0.3 21 10.6 WNW 11 17 6 9 1014.5 1014.5 0.0
21/04:00pm 22.0 17.4 1.6 26 9.5 NW 15 22 8 12 1015.0 1015.0 0.0
21/03:30pm 21.0 16.2 2.8 30 8.6 NW 17 22 9 12 1015.6 1015.6 0.0
21/03:00pm 21.4 16.5 4.0 32 8.4 NW 19 26 10 14 1016.3 1016.3 0.0
21/02:30pm 21.3 16.0 4.8 34 8.1 NNW 22 28 12 15 1016.9 1016.9 0.0
21/02:00pm 21.1 16.4 5.9 37 7.6 NW 20 28 11 15 1017.3 1017.3 0.0
21/01:30pm 21.0 16.1 5.0 35 7.9 NW 20 28 11 15 1017.7 1017.7 0.0
21/01:00pm 20.4 15.4 4.4 35 7.7 NW 20 32 11 17 1018.3 1018.3 0.0
21/12:30pm 19.8 15.3 6.9 43 6.5 NW 20 28 11 15 1018.9 1018.9 0.0
21/12:00pm 20.1 15.6 6.8 42 6.7 NW 20 30 11 16 1019.3 1019.3 0.0
21/11:30am 19.3 14.6 6.1 42 6.5 NW 20 30 11 16 1019.6 1019.6 0.0
21/11:00am 19.3 14.8 6.8 44 6.3 NW 20 28 11 15 1019.9 1019.9 0.0
21/10:30am 19.2 15.7 7.3 46 6.0 NNW 15 22 8 12 1020.3 1020.3 0.0
21/10:00am 17.7 14.1 6.6 48 5.5 NNW 15 22 8 12 1020.6 1020.6 0.0
21/09:30am 17.1 13.3 7.7 54 4.7 N 17 22 9 12 1020.7 1020.7 0.0
21/09:00am 15.4 12.0 9.1 66 3.2 NE 17 22 9 12 1020.7 1020.7 0.0
21/08:30am 13.7 10.2 10.3 80 1.8 NE 19 22 10 12 1020.7 1020.7 0.0
21/08:00am 11.8 8.8 10.5 92 0.7 NE 17 20 9 11 1020.6 1020.6 0.0

Other Formats:

Comma delimited format used in spreadsheet applications
http://www.bom.gov.au/fwo/IDS60801/IDS60801.95659.axf

JavaScript Object Notation format (JSON) in row-major order
http://www.bom.gov.au/fwo/IDS60801/IDS60801.95659.json